Time;durP1;ratioP1;P1;durP2;ratioP2;P2;SDS_P1;SDS_P2;PMS_P1;PMS_P2;Temp;Humidity;BMP_temperature;BMP_pressure;BME280_temperature;BME280_humidity;BME280_pressure;Samples;Min_cycle;Max_cycle;Signal;HPM_P1;HPM_P2
2022/05/13 00:01:46;;;;;;;2.80;1.17;;;12.90;99.90;;;;;;5035217;28;20486;-38
2022/05/13 00:04:12;;;;;;;2.35;1.10;;;12.90;99.90;;;;;;5035280;28;20060;-36
2022/05/13 00:06:38;;;;;;;2.78;0.63;;;12.90;99.90;;;;;;5035231;28;20033;-37
2022/05/13 00:09:03;;;;;;;3.50;0.82;;;12.90;99.90;;;;;;5035186;28;20064;-37
2022/05/13 00:11:29;;;;;;;7.38;2.30;;;12.90;99.90;;;;;;5035046;28;20041;-38
2022/05/13 00:13:55;;;;;;;4.78;0.95;;;12.90;99.90;;;;;;5035059;28;20042;-38
2022/05/13 00:16:21;;;;;;;2.22;0.50;;;13.00;99.90;;;;;;5035146;28;20068;-37
2022/05/13 00:18:47;;;;;;;5.20;1.02;;;13.00;99.90;;;;;;5034997;28;20025;-38
2022/05/13 00:21:12;;;;;;;5.60;1.17;;;13.00;99.90;;;;;;5034933;28;20120;-37
2022/05/13 00:23:38;;;;;;;6.10;1.05;;;13.00;99.90;;;;;;5034829;28;20068;-38
2022/05/13 00:26:04;;;;;;;7.13;1.95;;;13.00;99.90;;;;;;5034874;28;20518;-38
2022/05/13 00:28:29;;;;;;;3.95;0.85;;;13.10;99.90;;;;;;5034810;28;20029;-37
2022/05/13 00:30:55;;;;;;;4.93;1.10;;;13.10;99.90;;;;;;5034725;28;20111;-32
2022/05/13 00:33:21;;;;;;;3.67;1.63;;;13.10;99.90;;;;;;5034895;28;20028;-30
2022/05/13 00:35:47;;;;;;;8.63;1.95;;;13.20;99.90;;;;;;5034940;28;20136;-29
2022/05/13 00:38:13;;;;;;;6.05;1.15;;;13.20;99.90;;;;;;5034673;28;20474;-49
2022/05/13 00:40:41;;;;;;;3.05;1.15;;;13.20;99.90;;;;;;5033317;28;20025;-36
2022/05/13 00:43:09;;;;;;;10.93;1.67;;;13.10;99.90;;;;;;5034573;28;20079;-37
2022/05/13 00:45:35;;;;;;;4.63;1.00;;;13.20;99.90;;;;;;5033390;28;20076;-37
2022/05/13 00:48:02;;;;;;;6.72;2.35;;;13.20;99.90;;;;;;5034454;28;20104;-31
2022/05/13 00:50:31;;;;;;;4.18;0.55;;;13.20;99.90;;;;;;5034425;28;20474;-31
2022/05/13 00:52:57;;;;;;;5.93;1.33;;;13.20;99.90;;;;;;5034348;28;20481;-30
2022/05/13 00:55:35;;;;;;;10.32;2.05;;;13.20;99.90;;;;;;5034262;28;20064;-48
2022/05/13 00:58:04;;;;;;;8.02;2.28;;;13.20;99.90;;;;;;5033456;28;20435;-37
2022/05/13 01:00:29;;;;;;;5.05;1.55;;;13.20;99.90;;;;;;5034192;28;20052;-38
2022/05/13 01:02:55;;;;;;;6.43;1.88;;;13.10;99.90;;;;;;5034014;28;20060;-37
2022/05/13 01:05:21;;;;;;;3.35;1.38;;;13.20;99.90;;;;;;5034110;28;20075;-38
2022/05/13 01:07:50;;;;;;;7.97;2.83;;;13.10;99.90;;;;;;5034132;28;20037;-37
2022/05/13 01:10:23;;;;;;;3.35;1.00;;;13.20;99.90;;;;;;5034063;28;20036;-37
2022/05/13 01:12:53;;;;;;;5.95;1.38;;;13.20;99.90;;;;;;5033952;28;20033;-37
2022/05/13 01:15:25;;;;;;;6.15;1.25;;;13.10;99.90;;;;;;5033940;28;20087;-37
2022/05/13 01:18:07;;;;;;;11.20;1.83;;;13.20;99.90;;;;;;5034008;28;20029;-38
2022/05/13 01:20:32;;;;;;;12.75;1.67;;;13.20;99.90;;;;;;5034157;28;20508;-36
2022/05/13 01:23:23;;;;;;;11.90;1.60;;;13.20;99.90;;;;;;5032226;28;20037;-40
2022/05/13 01:25:53;;;;;;;9.57;2.00;;;13.20;99.90;;;;;;5033190;28;20052;-38
2022/05/13 01:28:22;;;;;;;5.82;1.67;;;13.10;99.90;;;;;;5033658;28;20022;-38
2022/05/13 01:30:53;;;;;;;11.30;2.00;;;13.10;99.90;;;;;;5033597;28;20029;-37
2022/05/13 01:33:21;;;;;;;6.15;1.95;;;13.10;99.90;;;;;;5033630;28;20021;-38
2022/05/13 01:35:49;;;;;;;4.13;1.90;;;13.20;99.90;;;;;;5033639;28;20013;-38
2022/05/13 01:38:16;;;;;;;14.68;1.88;;;13.20;99.90;;;;;;5033574;28;20477;-42
2022/05/13 01:40:42;;;;;;;7.35;1.50;;;13.20;99.90;;;;;;5032520;28;20486;-37
2022/05/13 01:43:08;;;;;;;6.32;1.23;;;13.20;99.90;;;;;;5033399;28;20100;-43
2022/05/13 01:45:35;;;;;;;8.13;2.08;;;13.20;99.90;;;;;;5033481;28;20109;-34
2022/05/13 01:48:01;;;;;;;8.77;1.73;;;13.20;99.90;;;;;;5033656;28;20477;-31
2022/05/13 01:50:27;;;;;;;6.65;1.58;;;13.20;99.90;;;;;;5033346;28;20124;-31
2022/05/13 01:52:54;;;;;;;11.45;2.45;;;13.20;99.90;;;;;;5033573;28;20096;-29
2022/05/13 01:55:21;;;;;;;5.60;1.42;;;13.20;99.90;;;;;;5032221;28;20040;-32
2022/05/13 01:57:46;;;;;;;12.50;2.15;;;13.20;99.90;;;;;;5033253;28;20040;-32
2022/05/13 02:00:13;;;;;;;6.65;1.42;;;13.20;99.90;;;;;;5033261;28;20100;-30
2022/05/13 02:05:24;;;;;;;2.33;1.35;;;13.20;99.90;;;;;;5033155;28;20099;-29
2022/05/13 02:07:50;;;;;;;4.70;2.28;;;13.20;99.90;;;;;;5033409;28;20104;-30
2022/05/13 02:10:16;;;;;;;9.07;2.83;;;13.20;99.90;;;;;;5032893;28;20014;-35
2022/05/13 02:12:42;;;;;;;6.05;2.10;;;13.20;99.90;;;;;;5033077;28;20021;-30
2022/05/13 02:15:08;;;;;;;13.80;2.88;;;13.20;99.90;;;;;;5033048;28;20470;-69
2022/05/13 02:17:34;;;;;;;4.60;1.65;;;13.20;99.90;;;;;;5033397;28;20032;-36
2022/05/13 02:19:59;;;;;;;6.47;1.70;;;13.20;99.90;;;;;;5033085;28;20030;-38
2022/05/13 02:22:25;;;;;;;7.40;2.00;;;13.20;99.90;;;;;;5032944;28;20470;-37
2022/05/13 02:24:51;;;;;;;11.68;3.40;;;13.30;99.90;;;;;;5032846;28;20486;-38
2022/05/13 02:27:16;;;;;;;10.98;2.50;;;13.30;99.90;;;;;;5032979;28;20076;-36
2022/05/13 02:29:42;;;;;;;8.45;2.50;;;13.30;99.90;;;;;;5032956;28;20025;-37
2022/05/13 02:32:08;;;;;;;15.45;3.25;;;13.30;99.90;;;;;;5032901;28;20080;-37
2022/05/13 02:34:36;;;;;;;15.02;2.92;;;13.20;99.90;;;;;;5032823;28;20522;-34
2022/05/13 02:37:03;;;;;;;16.77;2.35;;;13.20;99.90;;;;;;5032779;28;20029;-33
2022/05/13 02:39:29;;;;;;;8.82;3.00;;;13.30;99.90;;;;;;5032869;28;20033;-30
2022/05/13 02:41:55;;;;;;;9.77;2.22;;;13.30;99.90;;;;;;5032949;28;20116;-33
2022/05/13 02:44:21;;;;;;;17.17;3.33;;;13.30;99.90;;;;;;5032791;28;20528;-32
2022/05/13 02:46:47;;;;;;;10.27;2.88;;;13.30;99.90;;;;;;5032983;28;20026;-31
2022/05/13 02:49:13;;;;;;;11.13;3.05;;;13.30;99.90;;;;;;5033025;28;20370;-36
2022/05/13 02:51:40;;;;;;;10.63;3.33;;;13.30;99.90;;;;;;5032808;28;20466;-39
2022/05/13 02:54:07;;;;;;;7.85;2.72;;;13.30;99.90;;;;;;5032737;28;20032;-37
2022/05/13 02:56:33;;;;;;;17.63;2.88;;;13.40;99.90;;;;;;5032712;28;20064;-38
2022/05/13 02:58:59;;;;;;;23.33;4.20;;;13.30;99.90;;;;;;5030984;28;20136;-37
2022/05/13 03:01:25;;;;;;;9.27;3.05;;;13.30;99.90;;;;;;5032512;28;20037;-37
2022/05/13 03:03:50;;;;;;;15.63;3.67;;;13.30;99.90;;;;;;5032653;28;20384;-37
2022/05/13 03:06:17;;;;;;;11.98;4.20;;;13.30;99.90;;;;;;5032553;28;20033;-38
2022/05/13 03:08:43;;;;;;;12.70;2.90;;;13.30;99.90;;;;;;5032872;28;20021;-63
2022/05/13 03:11:09;;;;;;;19.92;3.33;;;13.30;99.90;;;;;;5032606;28;20105;-39
2022/05/13 03:13:35;;;;;;;10.23;3.40;;;13.30;99.90;;;;;;5032802;28;20048;-37
2022/05/13 03:16:15;;;;;;;9.13;2.80;;;13.30;99.90;;;;;;5032580;28;20104;-32
2022/05/13 03:18:41;;;;;;;8.45;2.88;;;13.30;99.90;;;;;;5032822;28;20088;-33
2022/05/13 03:21:08;;;;;;;4.45;2.53;;;13.30;99.90;;;;;;5032627;28;20018;-31
2022/05/13 03:23:34;;;;;;;24.10;3.78;;;13.30;99.90;;;;;;5036075;28;20053;-30
2022/05/13 03:25:59;;;;;;;16.02;3.45;;;13.30;99.90;;;;;;5035015;28;20034;-30
2022/05/13 03:28:25;;;;;;;10.73;3.17;;;13.20;99.90;;;;;;5036242;28;20025;-49
2022/05/13 03:30:51;;;;;;;15.93;2.75;;;13.20;99.90;;;;;;5035882;28;20470;-37
2022/05/13 03:33:19;;;;;;;8.93;3.33;;;13.30;99.90;;;;;;5035786;28;20032;-36
2022/05/13 03:35:44;;;;;;;17.40;4.38;;;13.20;99.90;;;;;;5035861;28;20029;-38
2022/05/13 03:38:10;;;;;;;18.02;3.60;;;13.20;99.90;;;;;;5035844;28;20538;-38
2022/05/13 03:40:36;;;;;;;14.20;3.42;;;13.30;99.90;;;;;;5035752;28;20028;-35
2022/05/13 03:43:03;;;;;;;7.07;2.47;;;13.20;99.90;;;;;;5035592;28;20025;-31
2022/05/13 03:45:30;;;;;;;14.77;2.67;;;13.20;99.90;;;;;;5035712;28;20022;-31
2022/05/13 03:47:56;;;;;;;20.60;3.03;;;13.20;99.90;;;;;;5035951;28;20477;-30
2022/05/13 03:50:22;;;;;;;16.83;3.40;;;13.20;99.90;;;;;;5035598;28;20025;-36
2022/05/13 03:52:47;;;;;;;6.70;3.10;;;13.20;99.90;;;;;;5035530;28;20037;-36
2022/05/13 03:55:13;;;;;;;11.13;2.90;;;13.20;99.90;;;;;;5035556;28;20649;-31
2022/05/13 03:57:39;;;;;;;14.82;3.85;;;13.20;99.90;;;;;;5035767;28;20482;-35
2022/05/13 04:00:07;;;;;;;10.93;2.88;;;13.20;99.90;;;;;;5035394;28;20021;-33
2022/05/13 04:02:32;;;;;;;17.92;3.13;;;13.20;99.90;;;;;;5035477;28;20600;-29
2022/05/13 04:10:27;;;;;;;10.38;3.88;;;13.20;99.90;;;;;;5035365;28;20500;-40
2022/05/13 04:18:22;;;;;;;16.55;3.25;;;13.20;99.90;;;;;;5035340;28;20119;-30
2022/05/13 04:20:47;;;;;;;7.60;3.35;;;13.20;99.90;;;;;;5035296;28;20431;-42
2022/05/13 04:23:14;;;;;;;7.65;3.17;;;13.20;99.90;;;;;;5034829;28;20490;-30
2022/05/13 04:25:41;;;;;;;12.35;3.10;;;13.30;99.90;;;;;;5035114;28;20453;-32
2022/05/13 04:28:06;;;;;;;13.43;3.05;;;13.30;99.90;;;;;;5034782;28;20022;-48
2022/05/13 04:30:32;;;;;;;13.20;3.22;;;13.20;99.90;;;;;;5034791;28;20487;-38
2022/05/13 04:32:57;;;;;;;12.10;2.50;;;13.20;99.90;;;;;;5034566;28;20033;-36
2022/05/13 04:35:23;;;;;;;8.60;2.72;;;13.20;99.90;;;;;;5034664;28;20040;-37
2022/05/13 04:37:49;;;;;;;14.10;2.80;;;13.20;99.90;;;;;;5034888;28;20033;-37
2022/05/13 04:40:17;;;;;;;14.65;3.63;;;13.20;99.90;;;;;;5034650;28;20405;-46
2022/05/13 04:42:49;;;;;;;17.90;2.85;;;13.20;99.90;;;;;;5034543;28;20034;-38
2022/05/13 04:45:24;;;;;;;9.63;2.85;;;13.20;99.90;;;;;;5034730;28;20025;-39
2022/05/13 04:48:16;;;;;;;10.70;2.75;;;13.20;99.90;;;;;;5034766;28;20025;-37
2022/05/13 04:50:51;;;;;;;6.85;3.10;;;13.20;99.90;;;;;;5034476;28;20556;-38
2022/05/13 04:53:25;;;;;;;13.18;2.33;;;13.20;99.90;;;;;;5034552;28;20026;-43
2022/05/13 04:55:52;;;;;;;6.40;2.28;;;13.10;99.90;;;;;;5034385;28;20021;-61
2022/05/13 04:58:18;;;;;;;14.10;2.37;;;13.20;99.90;;;;;;5034305;28;20068;-37
2022/05/13 05:00:49;;;;;;;10.73;2.30;;;13.20;99.90;;;;;;5034253;28;20539;-31
2022/05/13 05:03:16;;;;;;;8.45;2.50;;;13.20;99.90;;;;;;5033973;28;20033;-34
2022/05/13 05:05:43;;;;;;;11.68;2.10;;;13.30;99.90;;;;;;5034141;28;20025;-36
2022/05/13 05:08:11;;;;;;;7.82;2.50;;;13.40;99.90;;;;;;5032492;28;20079;-35
2022/05/13 05:10:38;;;;;;;7.32;1.92;;;13.50;99.90;;;;;;5034301;28;20484;-32
2022/05/13 05:13:07;;;;;;;16.67;2.53;;;13.50;99.90;;;;;;5034078;28;20584;-30
2022/05/13 05:15:34;;;;;;;13.57;3.17;;;13.50;99.90;;;;;;5032716;28;20021;-31
2022/05/13 05:18:03;;;;;;;14.85;2.17;;;13.60;99.90;;;;;;5033893;28;20394;-30
2022/05/13 05:20:29;;;;;;;11.18;2.38;;;13.50;99.90;;;;;;5034094;28;20029;-31
2022/05/13 05:22:54;;;;;;;17.30;3.30;;;13.50;99.90;;;;;;5032248;28;20579;-33
2022/05/13 05:25:21;;;;;;;9.52;2.97;;;13.50;99.90;;;;;;5033868;28;20057;-55
2022/05/13 05:27:48;;;;;;;11.43;2.47;;;13.50;99.90;;;;;;5034046;28;20036;-33
2022/05/13 05:30:15;;;;;;;7.05;1.98;;;13.60;99.90;;;;;;5033684;28;20037;-32
2022/05/13 05:32:42;;;;;;;13.23;2.60;;;13.70;99.90;;;;;;5033707;28;20022;-35
2022/05/13 05:35:17;;;;;;;10.48;3.15;;;13.80;99.90;;;;;;5033840;28;20385;-32
2022/05/13 05:37:46;;;;;;;8.90;2.85;;;13.80;99.90;;;;;;5033934;28;20104;-32
2022/05/13 05:40:12;;;;;;;7.85;2.70;;;13.90;99.90;;;;;;5033854;28;20524;-29
2022/05/13 05:42:38;;;;;;;12.45;2.70;;;13.90;99.90;;;;;;5033337;28;20063;-34
2022/05/13 05:45:06;;;;;;;10.00;2.33;;;14.00;99.90;;;;;;5031648;28;20033;-38
2022/05/13 05:47:31;;;;;;;7.22;2.20;;;14.00;99.90;;;;;;5033453;28;20048;-38
2022/05/13 05:49:58;;;;;;;12.00;2.20;;;14.10;99.90;;;;;;5033377;28;20429;-37
2022/05/13 05:52:23;;;;;;;9.82;2.30;;;14.20;99.90;;;;;;5033417;28;20029;-38
2022/05/13 05:57:33;;;;;;;10.20;2.70;;;14.40;99.90;;;;;;5033305;28;20037;-38
2022/05/13 06:00:00;;;;;;;9.98;1.88;;;14.50;99.90;;;;;;5033254;28;20025;-37
2022/05/13 06:02:27;;;;;;;17.80;2.47;;;14.50;99.90;;;;;;5033343;28;20488;-38
2022/05/13 06:04:53;;;;;;;4.97;1.70;;;14.50;99.90;;;;;;5033363;28;20767;-37
2022/05/13 06:07:18;;;;;;;10.90;1.98;;;14.60;99.90;;;;;;5033079;28;20466;-37
2022/05/13 06:09:44;;;;;;;17.20;2.47;;;14.50;99.90;;;;;;5033121;28;20074;-72
2022/05/13 06:12:13;;;;;;;7.13;1.48;;;14.50;99.90;;;;;;5033331;28;20155;-38
2022/05/13 06:14:39;;;;;;;11.60;2.50;;;14.60;99.90;;;;;;5033081;28;20390;-39
2022/05/13 06:17:05;;;;;;;3.15;1.05;;;14.50;99.90;;;;;;5033291;28;20049;-39
2022/05/13 06:19:31;;;;;;;11.35;1.30;;;14.30;99.90;;;;;;5033026;28;20026;-57
2022/05/13 06:21:57;;;;;;;6.10;1.27;;;14.30;99.90;;;;;;5032949;28;20030;-38
2022/05/13 06:24:23;;;;;;;6.35;1.30;;;14.10;99.90;;;;;;5032794;28;20075;-31
2022/05/13 06:26:50;;;;;;;4.25;1.48;;;14.10;99.90;;;;;;5032936;28;20018;-33
2022/05/13 06:29:21;;;;;;;5.72;0.95;;;14.20;99.90;;;;;;5032938;28;20014;-48
2022/05/13 06:31:47;;;;;;;4.18;1.33;;;14.40;99.90;;;;;;5033192;28;20112;-37
2022/05/13 06:34:13;;;;;;;4.88;0.80;;;14.50;99.90;;;;;;5031548;28;20504;-37
2022/05/13 06:36:39;;;;;;;5.53;1.85;;;14.60;99.90;;;;;;5032942;28;20017;-37
2022/05/13 06:39:06;;;;;;;9.25;1.25;;;14.80;99.90;;;;;;5032934;28;20539;-38
2022/05/13 06:41:37;;;;;;;7.60;1.58;;;14.60;99.90;;;;;;5033134;28;20424;-38
2022/05/13 06:44:04;;;;;;;6.85;1.38;;;14.60;99.90;;;;;;5031170;28;20443;-36
2022/05/13 06:46:31;;;;;;;7.35;1.17;;;14.70;99.90;;;;;;5014999;28;20041;-38
2022/05/13 06:48:58;;;;;;;4.22;0.95;;;14.70;99.90;;;;;;5033000;28;20351;-38
2022/05/13 06:51:24;;;;;;;3.00;1.00;;;14.70;99.90;;;;;;5032702;28;20032;-37
2022/05/13 06:53:50;;;;;;;8.13;1.58;;;14.90;99.90;;;;;;5032905;28;20756;-37
2022/05/13 06:56:15;;;;;;;6.13;1.35;;;15.00;99.90;;;;;;5033119;28;20022;-37
2022/05/13 06:58:42;;;;;;;8.35;1.63;;;15.40;99.90;;;;;;5036518;28;20029;-38
2022/05/13 07:01:07;;;;;;;4.28;1.25;;;15.90;99.90;;;;;;5036369;28;20057;-37
2022/05/13 07:03:33;;;;;;;6.35;0.95;;;15.90;99.90;;;;;;5036416;28;20071;-37
2022/05/13 07:05:59;;;;;;;4.20;1.20;;;16.30;99.90;;;;;;5036417;28;20620;-55
2022/05/13 07:08:25;;;;;;;4.97;1.50;;;16.20;99.90;;;;;;5036277;28;20060;-40
2022/05/13 07:10:50;;;;;;;8.32;1.17;;;15.80;99.90;;;;;;5036282;28;20014;-47
2022/05/13 07:13:16;;;;;;;14.07;1.00;;;15.60;99.90;;;;;;5036568;28;20045;-38
2022/05/13 07:15:43;;;;;;;5.20;0.98;;;15.20;99.90;;;;;;5036464;28;20528;-37
2022/05/13 07:18:09;;;;;;;4.65;1.35;;;15.20;99.90;;;;;;5036176;28;20453;-38
2022/05/13 07:20:35;;;;;;;6.00;1.63;;;15.20;99.90;;;;;;5036414;28;20050;-37
2022/05/13 07:23:01;;;;;;;4.40;0.90;;;15.20;99.90;;;;;;5035775;28;20054;-38
2022/05/13 07:25:27;;;;;;;6.63;1.13;;;15.10;99.90;;;;;;5036018;28;20079;-37
2022/05/13 07:27:53;;;;;;;6.47;1.23;;;15.00;99.90;;;;;;5035982;28;20017;-36
2022/05/13 07:30:19;;;;;;;4.15;1.35;;;14.80;99.90;;;;;;5035861;28;20025;-36
2022/05/13 07:32:45;;;;;;;5.93;1.55;;;14.90;99.90;;;;;;5035773;28;20059;-38
2022/05/13 07:35:10;;;;;;;4.95;0.80;;;15.00;99.90;;;;;;5035637;28;20104;-37
2022/05/13 07:37:37;;;;;;;9.40;0.82;;;15.10;99.90;;;;;;5035881;28;20025;-36
2022/05/13 07:42:49;;;;;;;4.93;1.05;;;15.60;99.90;;;;;;5035696;28;20032;-33
2022/05/13 07:45:15;;;;;;;5.90;0.90;;;16.00;99.90;;;;;;5035999;28;20022;-31
2022/05/13 07:47:42;;;;;;;4.97;1.25;;;15.80;99.90;;;;;;5035713;28;20078;-34
2022/05/13 07:50:10;;;;;;;4.80;1.23;;;15.60;99.90;;;;;;5035639;28;20029;-32
2022/05/13 07:52:40;;;;;;;2.85;1.33;;;15.70;99.90;;;;;;5035528;28;20014;-39
2022/05/13 07:55:08;;;;;;;4.15;0.93;;;16.00;99.90;;;;;;5034558;28;20470;-52
2022/05/13 07:57:40;;;;;;;8.30;1.25;;;16.60;99.90;;;;;;5035708;28;20034;-37
2022/05/13 08:00:26;;;;;;;4.97;0.70;;;16.90;99.90;;;;;;5035398;28;20032;-37
2022/05/13 08:02:57;;;;;;;8.98;1.05;;;17.00;99.90;;;;;;5035265;28;20033;-57
2022/05/13 08:05:24;;;;;;;2.20;0.60;;;17.10;99.90;;;;;;5035567;28;20378;-37
2022/05/13 08:08:04;;;;;;;5.00;0.82;;;17.00;99.90;;;;;;5034923;28;20363;-36
2022/05/13 08:10:30;;;;;;;5.75;1.75;;;16.70;99.90;;;;;;5035242;28;20021;-36
2022/05/13 08:12:55;;;;;;;4.60;1.35;;;16.70;99.90;;;;;;5035170;28;20041;-33
2022/05/13 08:15:21;;;;;;;5.50;0.73;;;16.50;99.90;;;;;;5035114;28;20029;-35
2022/05/13 08:17:47;;;;;;;6.38;1.52;;;16.00;99.90;;;;;;5034995;28;20079;-30
2022/05/13 08:20:12;;;;;;;7.93;0.90;;;15.80;99.90;;;;;;5035056;28;20101;-31
2022/05/13 08:22:38;;;;;;;7.88;1.48;;;15.70;99.90;;;;;;5034780;28;20064;-31
2022/05/13 08:25:04;;;;;;;2.35;0.68;;;15.80;99.90;;;;;;5033597;28;20141;-33
2022/05/13 08:27:32;;;;;;;7.60;0.85;;;15.90;99.90;;;;;;5034870;28;20044;-32
2022/05/13 08:29:59;;;;;;;4.55;0.93;;;15.80;99.90;;;;;;5034897;28;20469;-28
2022/05/13 08:32:24;;;;;;;5.93;1.42;;;16.20;99.90;;;;;;5034799;28;20079;-31
2022/05/13 08:34:50;;;;;;;3.67;0.85;;;16.60;99.90;;;;;;5034747;28;20025;-32
2022/05/13 08:37:16;;;;;;;7.00;0.65;;;17.00;99.90;;;;;;5034689;28;20029;-29
2022/05/13 08:39:41;;;;;;;2.92;0.77;;;17.10;99.90;;;;;;5034676;28;20059;-27
2022/05/13 08:42:22;;;;;;;5.50;1.10;;;17.40;99.90;;;;;;5033757;28;20037;-28
2022/05/13 08:44:50;;;;;;;3.75;0.82;;;17.50;99.90;;;;;;5034622;28;20013;-28
2022/05/13 08:47:28;;;;;;;4.28;1.13;;;17.90;99.90;;;;;;5034770;28;20504;-29
2022/05/13 08:50:17;;;;;;;3.15;0.90;;;18.40;99.90;;;;;;5034508;28;20079;-33
2022/05/13 08:53:08;;;;;;;5.53;1.00;;;18.90;99.90;;;;;;5034454;28;20029;-32
2022/05/13 08:55:50;;;;;;;4.68;1.15;;;19.30;99.90;;;;;;5034406;28;20040;-29
2022/05/13 08:58:23;;;;;;;2.40;0.90;;;19.30;99.60;;;;;;5034343;28;20105;-31
2022/05/13 09:00:53;;;;;;;5.90;1.10;;;19.50;99.30;;;;;;5034261;28;20025;-32
2022/05/13 09:03:36;;;;;;;6.15;1.05;;;19.80;98.60;;;;;;5034095;28;20029;-31
2022/05/13 09:06:18;;;;;;;1.92;1.23;;;19.90;98.70;;;;;;5034453;28;20414;-34
2022/05/13 09:08:44;;;;;;;1.20;0.88;;;20.30;98.00;;;;;;5034140;28;20036;-30
2022/05/13 09:11:28;;;;;;;3.80;1.17;;;20.20;98.20;;;;;;5032728;28;20026;-27
2022/05/13 09:14:38;;;;;;;5.47;0.95;;;19.90;98.00;;;;;;5034332;28;20025;-34
2022/05/13 09:17:06;;;;;;;4.75;0.85;;;19.40;98.10;;;;;;5031900;28;20433;-31
2022/05/13 09:19:36;;;;;;;9.82;1.20;;;19.60;98.20;;;;;;5032976;28;20060;-28
2022/05/13 09:22:11;;;;;;;4.50;0.98;;;19.80;98.20;;;;;;5033845;28;20021;-27
2022/05/13 09:24:37;;;;;;;3.00;0.95;;;19.50;98.60;;;;;;5033647;28;20046;-33
2022/05/13 09:27:04;;;;;;;4.80;1.25;;;19.00;99.30;;;;;;5033831;28;20018;-28
2022/05/13 09:29:41;;;;;;;8.90;1.40;;;18.90;99.30;;;;;;5033779;28;20025;-31
2022/05/13 09:32:15;;;;;;;6.57;1.40;;;19.10;99.00;;;;;;5033961;28;20470;-33
2022/05/13 09:35:07;;;;;;;4.10;1.00;;;19.30;98.40;;;;;;5033533;28;20482;-33
2022/05/13 09:37:39;;;;;;;2.63;1.05;;;19.20;98.20;;;;;;5032412;28;20560;-31
2022/05/13 09:40:04;;;;;;;5.05;1.10;;;18.90;98.40;;;;;;5033475;28;20041;-32
2022/05/13 09:42:46;;;;;;;3.47;1.13;;;18.70;98.80;;;;;;5033403;28;20063;-32
2022/05/13 09:45:25;;;;;;;3.72;1.05;;;18.50;99.20;;;;;;5033523;28;20022;-34
2022/05/13 09:48:05;;;;;;;2.78;0.80;;;18.20;99.10;;;;;;5033643;28;20018;-33
2022/05/13 09:50:34;;;;;;;4.40;0.93;;;18.00;99.90;;;;;;5033622;28;20025;-30
2022/05/13 09:53:21;;;;;;;10.95;1.73;;;18.00;99.90;;;;;;5033578;28;20021;-34
2022/05/13 09:55:48;;;;;;;6.07;1.40;;;18.40;99.90;;;;;;5033687;28;20547;-32
2022/05/13 09:58:26;;;;;;;5.28;1.00;;;18.80;99.30;;;;;;5033266;28;20033;-33
2022/05/13 10:00:58;;;;;;;6.38;1.20;;;18.70;99.40;;;;;;5032043;28;20026;-31
2022/05/13 10:03:29;;;;;;;6.55;1.30;;;18.60;99.20;;;;;;5033154;28;20482;-32
2022/05/13 10:06:15;;;;;;;5.68;1.20;;;18.40;99.00;;;;;;5033149;28;20045;-34
2022/05/13 10:08:54;;;;;;;5.50;1.95;;;18.40;99.80;;;;;;5033154;28;20433;-48
2022/05/13 10:14:27;;;;;;;5.35;1.02;;;19.10;98.80;;;;;;5033079;28;20064;-38
2022/05/13 10:16:54;;;;;;;3.53;1.40;;;18.80;99.00;;;;;;5033191;28;20436;-36
2022/05/13 10:19:41;;;;;;;3.90;0.70;;;18.90;99.30;;;;;;5033338;28;20491;-38
2022/05/13 10:22:17;;;;;;;5.28;1.40;;;19.00;98.80;;;;;;5032942;28;20025;-44
2022/05/13 10:25:03;;;;;;;3.10;0.95;;;18.70;98.90;;;;;;5032858;28;20046;-63
2022/05/13 10:28:01;;;;;;;6.22;1.00;;;18.40;99.30;;;;;;5033032;28;20101;-58
2022/05/13 10:30:43;;;;;;;8.52;1.50;;;19.00;98.80;;;;;;5032204;28;20553;-37
2022/05/13 10:33:18;;;;;;;2.13;0.88;;;20.00;98.20;;;;;;5036972;28;20017;-39
2022/05/13 10:35:56;;;;;;;2.03;0.85;;;20.80;97.10;;;;;;5037112;28;20555;-37
2022/05/13 10:38:56;;;;;;;4.35;1.10;;;20.60;97.30;;;;;;5036988;28;20526;-38
2022/05/13 10:41:43;;;;;;;5.70;1.33;;;20.80;97.20;;;;;;5035713;28;20086;-37
2022/05/13 10:44:19;;;;;;;3.30;1.13;;;20.70;96.60;;;;;;5036862;28;20529;-44
2022/05/13 10:46:52;;;;;;;3.83;1.00;;;20.00;97.60;;;;;;5036918;28;20292;-41
2022/05/13 10:49:18;;;;;;;6.32;1.30;;;19.60;97.50;;;;;;5036809;28;20030;-37
2022/05/13 10:51:58;;;;;;;6.40;1.30;;;19.50;97.60;;;;;;5036668;28;20395;-38
2022/05/13 10:54:39;;;;;;;7.07;1.88;;;19.40;97.40;;;;;;5036682;28;20064;-32
2022/05/13 10:57:13;;;;;;;2.22;0.98;;;19.40;97.80;;;;;;5036589;28;20029;-30
2022/05/13 11:00:00;;;;;;;7.15;1.48;;;19.20;98.10;;;;;;5036799;28;20031;-34
2022/05/13 11:03:04;;;;;;;;;;;19.20;98.30;;;;;;5036684;28;20028;-35
2022/05/13 11:05:33;;;;;;;9.32;1.13;;;19.00;98.10;;;;;;5014458;28;19928;-43
2022/05/13 11:08:07;;;;;;;1.10;0.68;;;18.70;98.30;;;;;;5014767;28;20453;-30
2022/05/13 11:10:42;;;;;;;4.18;1.33;;;18.60;99.00;;;;;;5026371;28;20038;-29
2022/05/13 11:13:24;;;;;;;3.70;1.08;;;18.70;98.40;;;;;;5036289;28;20113;-33
2022/05/13 11:16:01;;;;;;;12.95;1.88;;;18.90;98.00;;;;;;5036347;28;20104;-31
2022/05/13 11:18:37;;;;;;;4.40;0.95;;;19.40;98.30;;;;;;5036412;28;20387;-32
2022/05/13 11:21:08;;;;;;;2.75;1.23;;;19.30;98.20;;;;;;5036128;28;20029;-32
2022/05/13 11:25:54;;;;;;;1.55;0.73;;;19.40;97.30;;;;;;5035848;28;20405;-30
2022/05/13 11:26:41;;;;;;;2.60;1.02;;;19.70;96.20;;;;;;5036021;28;20030;-31
2022/05/13 11:29:35;;;;;;;1.73;0.85;;;19.80;96.30;;;;;;5036252;28;20112;-32
2022/05/13 11:32:13;;;;;;;2.22;0.98;;;19.70;96.50;;;;;;5036001;28;20032;-31
2022/05/13 11:34:58;;;;;;;4.55;0.85;;;19.60;96.30;;;;;;5035705;28;20025;-31
2022/05/13 11:37:29;;;;;;;4.05;0.93;;;19.60;96.20;;;;;;5036186;28;20533;-30
2022/05/13 11:40:15;;;;;;;7.35;1.40;;;19.40;96.80;;;;;;5036089;28;20496;-36
2022/05/13 11:46:01;;;;;;;3.40;0.70;;;19.20;97.10;;;;;;5036024;28;20036;-36
2022/05/13 11:48:31;;;;;;;4.13;0.60;;;19.30;97.60;;;;;;5035934;28;20268;-38
2022/05/13 11:51:11;;;;;;;6.47;0.77;;;19.70;96.30;;;;;;5035540;28;20022;-38
2022/05/13 11:53:53;;;;;;;1.60;0.75;;;20.10;96.70;;;;;;5035854;28;20441;-41
2022/05/13 11:56:29;;;;;;;2.17;0.77;;;20.60;96.20;;;;;;5034494;28;20025;-37
2022/05/13 11:59:01;;;;;;;6.38;0.88;;;20.70;95.30;;;;;;5035735;28;20546;-37
2022/05/13 12:01:36;;;;;;;6.03;0.77;;;20.20;94.90;;;;;;5035219;28;20079;-36
2022/05/13 12:04:13;;;;;;;3.42;0.90;;;19.50;96.00;;;;;;5035621;28;20022;-37
2022/05/13 12:06:50;;;;;;;1.30;0.80;;;19.60;96.80;;;;;;5035585;28;20465;-39
2022/05/13 12:09:39;;;;;;;5.35;0.80;;;19.50;96.80;;;;;;5035261;28;20500;-44
2022/05/13 12:12:23;;;;;;;5.63;1.15;;;19.40;96.90;;;;;;5035188;28;20030;-38
2022/05/13 12:15:07;;;;;;;16.20;1.50;;;19.30;96.80;;;;;;5035160;28;20490;-38
2022/05/13 12:17:53;;;;;;;4.22;1.15;;;19.30;97.00;;;;;;5036385;28;20022;-39
2022/05/13 12:20:48;;;;;;;2.97;0.75;;;19.40;96.80;;;;;;5039365;28;20029;-38
2022/05/13 12:23:51;;;;;;;4.03;0.90;;;19.50;96.90;;;;;;5037143;28;20052;-38
2022/05/13 12:26:22;;;;;;;2.17;0.85;;;19.60;96.70;;;;;;5035079;28;20061;-39
2022/05/13 12:28:48;;;;;;;5.55;0.98;;;19.40;97.60;;;;;;5034845;28;20049;-57
2022/05/13 12:31:47;;;;;;;9.65;0.80;;;19.40;97.20;;;;;;5034765;28;20107;-38
2022/05/13 12:37:39;;;;;;;8.10;1.48;;;18.90;97.40;;;;;;5034391;28;20068;-36
2022/05/13 12:40:18;;;;;;;2.00;0.82;;;18.80;97.90;;;;;;5034756;28;20509;-37
2022/05/13 12:42:46;;;;;;;2.65;1.05;;;18.80;97.80;;;;;;5034620;28;20080;-38
2022/05/13 12:45:21;;;;;;;5.13;1.33;;;19.00;97.80;;;;;;5034598;28;20071;-38
2022/05/13 12:48:03;;;;;;;2.63;1.17;;;19.40;97.10;;;;;;5034561;28;20370;-38
2022/05/13 12:50:50;;;;;;;3.47;1.05;;;19.60;96.60;;;;;;5034499;28;20478;-38
2022/05/13 12:53:28;;;;;;;8.68;1.50;;;19.80;96.90;;;;;;5034076;28;20040;-38
2022/05/13 12:55:55;;;;;;;;;;;19.90;97.00;;;;;;5033023;28;20082;-38
2022/05/13 12:58:20;;;;;;;4.43;1.20;;;20.00;96.30;;;;;;5034384;28;19916;-39
2022/05/13 13:00:50;;;;;;;3.22;1.17;;;20.00;96.80;;;;;;5034356;28;20025;-38
2022/05/13 13:03:18;;;;;;;2.10;0.88;;;19.90;96.10;;;;;;5034060;28;20025;-46
2022/05/13 13:05:50;;;;;;;3.70;1.00;;;19.80;96.60;;;;;;5034236;28;20025;-38
2022/05/13 13:08:19;;;;;;;4.07;1.00;;;20.00;96.10;;;;;;5034093;28;20033;-38
2022/05/13 13:10:56;;;;;;;4.28;1.02;;;20.10;96.40;;;;;;5032737;28;20460;-37
2022/05/13 13:13:36;;;;;;;3.70;1.00;;;20.10;96.50;;;;;;5034063;28;20053;-38
2022/05/13 13:16:13;;;;;;;6.32;1.00;;;19.90;96.30;;;;;;5034083;28;20033;-39
2022/05/13 13:18:39;;;;;;;;;;;19.70;96.80;;;;;;5034378;28;20033;-39
2022/05/13 13:21:09;;;;;;;7.90;1.17;;;19.50;97.00;;;;;;5033935;28;19997;-39
2022/05/13 13:23:44;;;;;;;4.85;0.90;;;19.50;96.80;;;;;;5033471;28;20103;-38
2022/05/13 13:26:13;;;;;;;3.30;1.33;;;19.00;97.40;;;;;;5033869;28;20022;-39
2022/05/13 13:28:43;;;;;;;4.97;1.67;;;19.10;97.50;;;;;;5036833;28;20029;-39
2022/05/13 13:31:14;;;;;;;3.17;1.08;;;19.30;97.60;;;;;;5023959;28;20026;-39
2022/05/13 13:34:20;;;;;;;4.43;1.10;;;19.50;98.30;;;;;;5039810;28;20083;-39